Time;durP1;ratioP1;P1;durP2;ratioP2;P2;SDS_P1;SDS_P2;PMS_P1;PMS_P2;Temp;Humidity;BMP_temperature;BMP_pressure;BME280_temperature;BME280_humidity;BME280_pressure;Samples;Min_cycle;Max_cycle;Signal;HPM_P1;HPM_P2
2022/07/15 00:00:46;;;;;;;3.58;1.40;;;19.30;95.00;;;;;;4129196;28;20545;-69
2022/07/15 00:02:47;;;;;;;3.53;1.50;;;19.30;95.10;;;;;;4130170;28;20394;-70
2022/07/15 00:04:47;;;;;;;2.70;1.20;;;19.30;95.40;;;;;;4130102;28;20030;-69
2022/07/15 00:06:48;;;;;;;3.08;1.17;;;19.30;95.30;;;;;;4128278;28;20034;-69
2022/07/15 00:08:49;;;;;;;2.50;1.10;;;19.30;95.30;;;;;;4128650;28;20093;-69
2022/07/15 00:10:49;;;;;;;2.28;1.17;;;19.20;95.40;;;;;;4128275;28;20050;-69
2022/07/15 00:12:58;;;;;;;4.45;1.30;;;19.20;95.40;;;;;;4129628;28;20046;-70
2022/07/15 00:14:59;;;;;;;3.08;0.98;;;19.20;95.80;;;;;;4129856;28;20037;-69
2022/07/15 00:16:59;;;;;;;2.28;1.08;;;19.20;95.80;;;;;;4126961;28;20054;-69
2022/07/15 00:19:00;;;;;;;2.58;1.10;;;19.20;95.80;;;;;;4128573;28;20050;-69
2022/07/15 00:21:01;;;;;;;2.17;1.20;;;19.20;95.90;;;;;;4129569;28;20034;-69
2022/07/15 00:23:03;;;;;;;2.33;0.93;;;19.10;95.50;;;;;;4129939;28;20034;-69
2022/07/15 00:25:04;;;;;;;3.20;1.35;;;19.10;95.60;;;;;;4130224;28;20118;-71
2022/07/15 00:27:04;;;;;;;3.30;1.13;;;19.10;95.70;;;;;;4128681;28;20041;-69
2022/07/15 00:29:05;;;;;;;4.78;1.20;;;19.10;95.70;;;;;;4129108;28;20486;-70
2022/07/15 00:31:06;;;;;;;2.83;1.23;;;19.10;95.50;;;;;;4124682;28;20504;-69
2022/07/15 00:33:07;;;;;;;4.05;1.27;;;19.10;95.50;;;;;;4130003;28;20118;-69
2022/07/15 00:35:08;;;;;;;3.90;1.33;;;19.10;97.80;;;;;;4129455;28;20109;-70
2022/07/15 00:37:09;;;;;;;3.20;1.10;;;19.00;96.30;;;;;;4126847;28;20038;-69
2022/07/15 00:39:09;;;;;;;2.72;1.20;;;19.00;96.10;;;;;;4129276;28;20038;-69
2022/07/15 00:41:10;;;;;;;2.67;1.27;;;19.00;95.80;;;;;;4129292;28;20504;-69
2022/07/15 00:43:10;;;;;;;3.20;1.23;;;19.00;96.30;;;;;;4128260;28;20026;-69
2022/07/15 00:45:15;;;;;;;3.40;1.15;;;18.90;95.80;;;;;;4128262;28;20038;-71
2022/07/15 00:47:16;;;;;;;1.70;1.17;;;18.90;95.60;;;;;;4125674;28;20034;-69
2022/07/15 00:49:16;;;;;;;3.08;1.10;;;18.90;95.80;;;;;;4128230;28;20053;-70
2022/07/15 00:51:17;;;;;;;3.45;1.20;;;18.90;95.70;;;;;;4128552;28;20030;-69
2022/07/15 00:53:20;;;;;;;3.70;1.30;;;18.90;96.00;;;;;;4128871;28;20046;-69
2022/07/15 00:55:22;;;;;;;2.53;1.15;;;18.90;96.20;;;;;;4128622;28;20046;-70
2022/07/15 00:57:24;;;;;;;2.10;1.10;;;18.80;96.30;;;;;;4127618;28;20437;-69
2022/07/15 00:59:32;;;;;;;2.95;1.35;;;18.80;96.10;;;;;;4128036;28;20273;-69
2022/07/15 01:01:35;;;;;;;3.40;1.40;;;18.80;96.10;;;;;;4126161;28;20874;-69
2022/07/15 01:03:36;;;;;;;3.50;1.00;;;18.80;96.80;;;;;;4129171;28;20561;-69
2022/07/15 01:05:37;;;;;;;2.20;1.08;;;18.80;96.70;;;;;;4128412;28;20442;-69
2022/07/15 01:07:41;;;;;;;5.55;1.30;;;18.80;96.60;;;;;;4126600;28;20386;-69
2022/07/15 01:09:42;;;;;;;2.75;1.13;;;18.80;96.60;;;;;;4128913;28;20074;-69
2022/07/15 01:11:42;;;;;;;3.13;1.27;;;18.80;96.40;;;;;;4128473;28;20046;-70
2022/07/15 01:13:43;;;;;;;3.97;1.55;;;18.80;96.50;;;;;;4128708;28;20061;-69
2022/07/15 01:15:44;;;;;;;3.33;1.20;;;18.70;96.30;;;;;;4127401;28;20085;-70
2022/07/15 01:17:46;;;;;;;3.78;1.25;;;18.70;96.20;;;;;;4128291;28;23099;-70
2022/07/15 01:19:46;;;;;;;2.20;1.15;;;18.70;96.20;;;;;;4128559;28;20030;-70
2022/07/15 01:21:47;;;;;;;2.95;1.23;;;18.70;96.10;;;;;;4129687;28;20039;-69
2022/07/15 01:23:47;;;;;;;3.55;1.13;;;18.70;96.20;;;;;;4129187;28;20475;-69
2022/07/15 01:25:48;;;;;;;2.95;1.30;;;18.60;96.40;;;;;;4128523;28;20588;-69
2022/07/15 01:27:48;;;;;;;2.13;1.10;;;18.60;96.30;;;;;;4127052;28;20085;-69
2022/07/15 01:29:49;;;;;;;4.30;1.17;;;18.60;96.50;;;;;;4128741;28;20046;-69
2022/07/15 01:31:50;;;;;;;3.95;1.25;;;18.60;96.40;;;;;;4128167;28;20038;-69
2022/07/15 01:33:53;;;;;;;4.00;1.23;;;18.60;96.70;;;;;;4109464;28;20094;-69
2022/07/15 01:35:55;;;;;;;3.63;1.13;;;18.60;96.80;;;;;;4128501;28;20054;-70
2022/07/15 01:37:56;;;;;;;4.82;1.40;;;18.60;96.00;;;;;;4124943;28;20035;-69
2022/07/15 01:39:56;;;;;;;3.20;1.17;;;18.60;95.80;;;;;;4128845;28;20041;-69
2022/07/15 01:41:57;;;;;;;3.35;1.20;;;18.60;95.70;;;;;;4116050;28;20082;-69
2022/07/15 01:43:57;;;;;;;3.28;1.23;;;18.60;96.20;;;;;;4128883;28;20046;-69
2022/07/15 01:45:58;;;;;;;4.20;1.35;;;18.50;96.20;;;;;;4128059;28;20513;-70
2022/07/15 01:47:59;;;;;;;2.83;1.20;;;18.50;96.00;;;;;;4125427;28;20030;-69
2022/07/15 01:49:59;;;;;;;3.22;1.05;;;18.50;96.60;;;;;;4128963;28;20043;-70
2022/07/15 01:52:01;;;;;;;7.07;1.45;;;18.50;96.40;;;;;;4128292;28;20026;-69
2022/07/15 01:54:02;;;;;;;4.10;1.63;;;18.50;97.10;;;;;;4128498;28;20042;-69
2022/07/15 01:56:03;;;;;;;2.95;1.38;;;18.40;97.30;;;;;;4128360;28;20477;-69
2022/07/15 01:58:04;;;;;;;4.22;1.45;;;18.40;97.30;;;;;;4126488;28;20039;-70
2022/07/15 02:00:06;;;;;;;3.15;1.48;;;18.30;97.30;;;;;;4128053;28;20026;-71
2022/07/15 02:02:07;;;;;;;2.95;1.45;;;18.30;97.40;;;;;;4124895;28;20033;-69
2022/07/15 02:04:08;;;;;;;3.05;1.20;;;18.30;97.20;;;;;;4129600;28;20038;-69
2022/07/15 02:06:08;;;;;;;3.08;1.58;;;18.20;97.70;;;;;;4127459;28;20031;-68
2022/07/15 02:08:09;;;;;;;4.38;1.75;;;18.20;97.40;;;;;;4127215;28;20033;-70
2022/07/15 02:10:09;;;;;;;3.67;1.58;;;18.30;97.90;;;;;;4128443;28;20026;-70
2022/07/15 02:12:10;;;;;;;2.88;1.40;;;18.20;97.30;;;;;;4128809;28;20029;-69
2022/07/15 02:14:11;;;;;;;2.47;1.50;;;18.20;97.00;;;;;;4129047;28;20363;-69
2022/07/15 02:16:12;;;;;;;2.30;1.30;;;18.20;97.00;;;;;;4127547;28;20096;-69
2022/07/15 02:18:12;;;;;;;4.15;1.50;;;18.10;96.80;;;;;;4126157;28;20498;-70
2022/07/15 02:20:13;;;;;;;2.97;1.45;;;18.10;96.80;;;;;;4128158;28;20061;-71
2022/07/15 02:22:13;;;;;;;3.22;1.42;;;18.10;96.70;;;;;;4129101;28;20490;-69
2022/07/15 02:24:14;;;;;;;1.95;1.10;;;18.10;96.80;;;;;;4128677;28;20483;-69
2022/07/15 02:26:15;;;;;;;3.83;1.40;;;18.10;97.10;;;;;;4128280;28;20133;-69
2022/07/15 02:28:16;;;;;;;2.65;1.33;;;18.00;97.10;;;;;;4125821;28;20045;-69
2022/07/15 02:30:16;;;;;;;4.97;1.73;;;18.00;97.00;;;;;;4128202;28;20053;-70
2022/07/15 02:32:17;;;;;;;2.33;1.50;;;17.90;97.30;;;;;;4128860;28;20042;-69
2022/07/15 02:34:17;;;;;;;5.03;1.80;;;17.90;97.70;;;;;;4129722;28;20044;-69
2022/07/15 02:36:18;;;;;;;2.65;1.42;;;17.90;98.00;;;;;;4126077;28;20038;-69
2022/07/15 02:38:19;;;;;;;3.10;1.30;;;17.90;97.90;;;;;;4127418;28;20106;-69
2022/07/15 02:40:20;;;;;;;3.80;1.60;;;17.80;97.70;;;;;;4132451;28;20034;-70
2022/07/15 02:42:21;;;;;;;3.45;1.55;;;17.80;97.70;;;;;;4131849;28;20042;-69
2022/07/15 02:44:22;;;;;;;4.18;1.42;;;17.80;97.90;;;;;;4131502;28;20045;-69
2022/07/15 02:46:22;;;;;;;3.15;1.50;;;17.80;98.20;;;;;;4128166;28;20050;-69
2022/07/15 02:48:23;;;;;;;3.88;1.30;;;17.80;98.20;;;;;;4128762;28;20125;-70
2022/07/15 02:50:24;;;;;;;5.43;1.77;;;17.70;98.20;;;;;;4130151;28;20042;-70
2022/07/15 02:52:24;;;;;;;3.53;1.75;;;17.80;98.30;;;;;;4131815;28;20034;-69
2022/07/15 02:54:25;;;;;;;5.45;1.50;;;17.70;98.10;;;;;;4129899;28;20089;-69
2022/07/15 02:56:26;;;;;;;2.78;1.27;;;17.70;98.30;;;;;;4128981;28;20242;-69
2022/07/15 02:58:28;;;;;;;2.25;1.42;;;17.70;98.30;;;;;;4129712;28;20061;-69
2022/07/15 03:00:30;;;;;;;3.88;1.35;;;17.70;98.00;;;;;;4129912;28;20126;-69
2022/07/15 03:02:30;;;;;;;3.85;1.48;;;17.70;98.20;;;;;;4130632;28;20026;-69
2022/07/15 03:04:31;;;;;;;4.45;1.85;;;17.70;98.30;;;;;;4131477;28;20030;-69
2022/07/15 03:06:33;;;;;;;2.83;1.48;;;17.70;98.30;;;;;;4129607;28;20030;-69
2022/07/15 03:08:34;;;;;;;4.15;1.60;;;17.60;98.30;;;;;;4119013;28;20034;-69
2022/07/15 03:10:34;;;;;;;4.60;1.80;;;17.60;98.40;;;;;;4130573;28;20092;-69
2022/07/15 03:12:35;;;;;;;4.28;1.55;;;17.60;98.50;;;;;;4131376;28;20042;-69
2022/07/15 03:14:35;;;;;;;2.53;1.45;;;17.60;98.40;;;;;;4131537;28;20045;-69
2022/07/15 03:16:36;;;;;;;3.45;1.35;;;17.50;98.10;;;;;;4129425;28;20133;-69
2022/07/15 03:18:37;;;;;;;4.13;1.55;;;17.50;98.50;;;;;;4129379;28;20109;-69
2022/07/15 03:20:37;;;;;;;2.67;1.45;;;17.50;98.40;;;;;;4130506;28;20669;-69
2022/07/15 03:22:38;;;;;;;4.03;1.20;;;17.50;98.10;;;;;;4131683;28;20074;-69
2022/07/15 03:24:38;;;;;;;5.90;1.52;;;17.50;98.50;;;;;;4131778;28;20077;-69
2022/07/15 03:26:39;;;;;;;4.85;1.63;;;17.50;98.70;;;;;;4129878;28;20493;-69
2022/07/15 03:28:39;;;;;;;6.03;1.70;;;17.50;98.40;;;;;;4128053;28;20045;-69
2022/07/15 03:30:40;;;;;;;2.67;1.45;;;17.50;98.40;;;;;;4129316;28;20138;-69
2022/07/15 03:32:41;;;;;;;2.97;1.45;;;17.50;98.10;;;;;;4131045;28;20026;-69
2022/07/15 03:34:43;;;;;;;5.22;1.67;;;17.40;98.50;;;;;;4131709;28;20050;-69
2022/07/15 03:36:43;;;;;;;6.38;1.88;;;17.40;98.80;;;;;;4134554;28;20049;-69
2022/07/15 03:38:44;;;;;;;4.32;1.52;;;17.50;98.90;;;;;;4129308;28;20038;-70
2022/07/15 03:40:46;;;;;;;3.08;1.42;;;17.50;99.20;;;;;;4130107;28;20413;-70
2022/07/15 03:42:46;;;;;;;4.47;1.77;;;17.40;98.70;;;;;;4131025;28;20081;-69
2022/07/15 03:44:47;;;;;;;2.53;1.50;;;17.50;98.80;;;;;;4130271;28;20097;-69
2022/07/15 03:46:48;;;;;;;4.00;1.40;;;17.50;98.50;;;;;;4128992;28;20038;-69
2022/07/15 03:48:49;;;;;;;5.38;1.35;;;17.50;98.40;;;;;;4128957;28;20039;-69
2022/07/15 03:50:49;;;;;;;2.47;1.40;;;17.50;98.30;;;;;;4115968;28;20411;-69
2022/07/15 03:52:50;;;;;;;2.60;1.42;;;17.50;98.70;;;;;;4130169;28;20034;-69
2022/07/15 03:54:51;;;;;;;2.40;1.42;;;17.40;98.80;;;;;;4130833;28;20473;-69
2022/07/15 03:56:51;;;;;;;2.60;1.55;;;17.40;98.70;;;;;;4128913;28;20050;-69
2022/07/15 03:58:52;;;;;;;2.80;1.63;;;17.40;98.70;;;;;;4129444;28;20394;-70
2022/07/15 04:00:53;;;;;;;2.75;1.25;;;17.40;99.00;;;;;;4127727;28;20030;-69
2022/07/15 04:02:53;;;;;;;5.93;1.92;;;17.40;99.40;;;;;;4129946;28;20042;-70
2022/07/15 04:04:54;;;;;;;4.35;1.50;;;17.40;98.90;;;;;;4128834;28;20137;-70
2022/07/15 04:06:55;;;;;;;2.50;1.27;;;17.40;99.00;;;;;;4128554;28;20030;-69
2022/07/15 04:08:55;;;;;;;1.88;1.25;;;17.40;99.10;;;;;;4127904;28;20046;-69
2022/07/15 04:10:56;;;;;;;4.95;1.35;;;17.40;99.20;;;;;;4129110;28;20053;-69
2022/07/15 04:12:58;;;;;;;4.45;1.60;;;17.50;99.30;;;;;;4130064;28;20470;-67
2022/07/15 04:14:59;;;;;;;6.32;1.75;;;17.50;99.90;;;;;;4130427;28;20034;-69
2022/07/15 04:16:59;;;;;;;3.25;1.67;;;17.40;99.90;;;;;;4124932;28;21092;-69
2022/07/15 04:19:00;;;;;;;4.82;1.50;;;17.40;99.90;;;;;;4126749;28;20450;-69
2022/07/15 04:21:01;;;;;;;5.85;1.98;;;17.40;99.90;;;;;;4129538;28;20040;-69
2022/07/15 04:23:02;;;;;;;3.88;1.60;;;17.40;99.90;;;;;;4126465;28;20039;-70
2022/07/15 04:25:03;;;;;;;2.63;1.52;;;17.40;99.90;;;;;;4125692;28;20117;-71
2022/07/15 04:27:03;;;;;;;4.38;1.42;;;17.40;99.90;;;;;;4125794;28;20050;-69
2022/07/15 04:29:04;;;;;;;3.83;1.60;;;17.30;99.90;;;;;;4128026;28;20085;-69
2022/07/15 04:31:04;;;;;;;5.78;2.03;;;17.40;99.90;;;;;;4129497;28;20121;-69
2022/07/15 04:33:05;;;;;;;4.10;1.60;;;17.30;99.90;;;;;;4130419;28;20037;-69
2022/07/15 04:35:06;;;;;;;4.50;1.75;;;17.30;99.90;;;;;;4129116;28;20624;-71
2022/07/15 04:37:07;;;;;;;5.20;1.75;;;17.30;99.90;;;;;;4126889;28;20116;-69
2022/07/15 04:39:07;;;;;;;6.82;2.17;;;17.30;99.90;;;;;;4128321;28;20034;-70
2022/07/15 04:41:08;;;;;;;5.70;2.28;;;17.30;99.90;;;;;;4129602;28;20048;-69
2022/07/15 04:43:09;;;;;;;3.55;1.90;;;17.30;99.90;;;;;;4130453;28;20058;-70
2022/07/15 04:45:10;;;;;;;6.18;1.92;;;17.30;99.90;;;;;;4129548;28;20038;-71
2022/07/15 04:47:10;;;;;;;5.82;2.58;;;17.30;99.90;;;;;;4128314;28;20030;-69
2022/07/15 04:51:30;;;;;;;5.72;2.33;;;17.40;99.90;;;;;;4128519;28;20035;-69
2022/07/15 04:53:30;;;;;;;4.85;2.50;;;17.40;99.90;;;;;;4130435;28;20066;-69
2022/07/15 04:55:31;;;;;;;6.07;2.50;;;17.40;99.90;;;;;;4128977;28;20045;-70
2022/07/15 04:57:32;;;;;;;6.07;2.70;;;17.40;99.90;;;;;;4126780;28;20117;-70
2022/07/15 04:59:32;;;;;;;5.28;2.90;;;17.40;99.90;;;;;;4127863;28;20176;-69
2022/07/15 05:01:33;;;;;;;4.15;2.22;;;17.40;99.90;;;;;;4129908;28;20034;-69
2022/07/15 05:03:34;;;;;;;3.47;2.08;;;17.40;99.90;;;;;;4129944;28;20114;-70
2022/07/15 05:05:34;;;;;;;8.68;3.17;;;17.50;99.90;;;;;;4128590;28;20034;-69
2022/07/15 05:07:35;;;;;;;7.80;2.85;;;17.50;99.90;;;;;;4126248;28;20478;-70
2022/07/15 05:09:35;;;;;;;3.92;2.08;;;17.50;99.90;;;;;;4129573;28;20038;-69
2022/07/15 05:11:36;;;;;;;4.45;1.80;;;17.50;99.90;;;;;;4129397;28;20104;-69
2022/07/15 05:13:37;;;;;;;5.85;2.08;;;17.50;99.90;;;;;;4129916;28;20042;-70
2022/07/15 05:15:38;;;;;;;4.15;1.80;;;17.60;99.90;;;;;;4128947;28;20133;-69
2022/07/15 05:17:40;;;;;;;4.00;2.00;;;17.60;99.90;;;;;;4125344;28;20393;-70
2022/07/15 05:19:41;;;;;;;3.63;1.70;;;17.70;99.90;;;;;;4129016;28;20509;-68
2022/07/15 05:21:41;;;;;;;4.40;1.70;;;17.70;99.90;;;;;;4127553;28;20042;-69
2022/07/15 05:23:42;;;;;;;5.38;1.67;;;17.70;99.90;;;;;;4128340;28;20033;-69
2022/07/15 05:25:42;;;;;;;6.82;2.10;;;17.80;99.90;;;;;;4128744;28;20033;-69
2022/07/15 05:27:44;;;;;;;3.55;1.80;;;17.90;99.90;;;;;;4125776;28;20058;-69
2022/07/15 05:29:44;;;;;;;7.13;2.35;;;17.90;99.90;;;;;;4115798;28;20031;-70
2022/07/15 05:31:45;;;;;;;3.53;1.60;;;17.90;99.90;;;;;;4126311;28;20053;-69
2022/07/15 05:33:46;;;;;;;5.57;1.95;;;18.00;99.90;;;;;;4129885;28;20030;-70
2022/07/15 05:35:46;;;;;;;2.97;1.58;;;18.00;99.90;;;;;;4130238;28;20082;-69
2022/07/15 05:37:47;;;;;;;4.00;1.77;;;18.10;99.90;;;;;;4127542;28;20101;-70
2022/07/15 05:39:53;;;;;;;4.97;1.80;;;18.10;99.90;;;;;;4126478;28;20041;-70
2022/07/15 05:41:54;;;;;;;3.75;1.60;;;18.10;99.90;;;;;;4128349;28;20410;-70
2022/07/15 05:43:54;;;;;;;3.03;1.55;;;18.20;99.90;;;;;;4129271;28;20023;-70
2022/07/15 05:45:55;;;;;;;2.88;1.40;;;18.20;99.90;;;;;;4129995;28;20067;-70
2022/07/15 05:47:56;;;;;;;2.78;1.25;;;18.20;99.90;;;;;;4127001;28;20034;-70
2022/07/15 05:49:56;;;;;;;5.65;1.83;;;18.30;99.90;;;;;;4129550;28;20053;-70
2022/07/15 05:51:57;;;;;;;5.13;2.10;;;18.30;99.90;;;;;;4125607;28;20050;-70
2022/07/15 05:53:57;;;;;;;3.53;1.38;;;18.30;99.90;;;;;;4128862;28;20041;-70
2022/07/15 05:55:59;;;;;;;3.58;1.70;;;18.40;99.90;;;;;;4127791;28;20634;-70
2022/07/15 05:58:00;;;;;;;4.60;1.42;;;18.50;99.90;;;;;;4125773;28;20042;-69
2022/07/15 06:00:01;;;;;;;4.00;1.60;;;18.50;99.90;;;;;;4128942;28;20038;-69
2022/07/15 06:02:02;;;;;;;3.38;1.75;;;18.60;99.90;;;;;;4127498;28;20492;-70
2022/07/15 06:04:02;;;;;;;3.92;1.25;;;18.70;99.90;;;;;;4129426;28;20034;-69
2022/07/15 06:06:05;;;;;;;3.17;1.42;;;18.70;99.90;;;;;;4130115;28;20042;-69
2022/07/15 06:08:07;;;;;;;;;;;18.90;99.90;;;;;;4122043;28;20037;-70
2022/07/15 06:10:09;;;;;;;3.55;1.70;;;19.00;99.90;;;;;;4113760;28;19910;-71
2022/07/15 06:12:09;;;;;;;3.80;1.63;;;19.20;99.90;;;;;;4128401;28;20417;-70
2022/07/15 06:14:10;;;;;;;3.80;1.27;;;19.40;99.90;;;;;;4130117;28;20117;-70
2022/07/15 06:16:10;;;;;;;3.95;1.23;;;19.50;99.90;;;;;;4131230;28;20026;-70
2022/07/15 06:18:11;;;;;;;2.55;1.38;;;19.70;99.90;;;;;;4131036;28;20092;-70
2022/07/15 06:20:12;;;;;;;3.63;1.17;;;19.90;98.90;;;;;;4128837;28;20026;-69
2022/07/15 06:22:13;;;;;;;3.25;1.02;;;20.10;99.00;;;;;;4131374;28;20042;-70
2022/07/15 06:24:13;;;;;;;2.58;0.90;;;20.40;98.70;;;;;;4131636;28;20375;-70
2022/07/15 06:26:14;;;;;;;3.90;1.30;;;20.70;98.20;;;;;;4132242;28;20025;-70
2022/07/15 06:28:15;;;;;;;6.25;1.40;;;21.10;96.80;;;;;;4129796;28;20397;-70
2022/07/15 06:30:16;;;;;;;7.15;1.58;;;21.50;96.40;;;;;;4129007;28;20030;-71
2022/07/15 06:32:17;;;;;;;4.07;1.30;;;21.90;95.80;;;;;;4130347;28;20030;-71
2022/07/15 06:34:18;;;;;;;2.20;0.80;;;22.20;95.30;;;;;;4131482;28;20115;-71
2022/07/15 06:36:18;;;;;;;4.20;1.10;;;22.60;93.50;;;;;;4129565;28;20101;-71
2022/07/15 06:38:19;;;;;;;2.22;0.80;;;23.00;93.50;;;;;;4129220;28;20027;-71
2022/07/15 06:40:20;;;;;;;2.88;1.10;;;23.30;93.00;;;;;;4130362;28;20131;-71
2022/07/15 06:42:21;;;;;;;2.72;1.00;;;23.60;93.00;;;;;;4134217;28;20019;-71
2022/07/15 06:44:22;;;;;;;3.10;0.90;;;23.80;92.40;;;;;;4132255;28;20041;-72
2022/07/15 06:46:22;;;;;;;2.38;0.73;;;24.10;92.00;;;;;;4131121;28;20038;-72
2022/07/15 06:48:23;;;;;;;1.90;0.75;;;24.30;91.40;;;;;;4128122;28;20027;-72
2022/07/15 06:50:24;;;;;;;2.60;0.98;;;24.50;92.20;;;;;;4126812;28;20494;-73
2022/07/15 06:52:24;;;;;;;3.00;1.00;;;24.40;88.80;;;;;;4131362;28;20557;-72
2022/07/15 06:54:25;;;;;;;2.33;0.75;;;24.30;90.50;;;;;;4131309;28;20042;-72
2022/07/15 06:56:25;;;;;;;4.65;1.10;;;24.10;90.00;;;;;;4129017;28;20092;-73
2022/07/15 06:58:26;;;;;;;2.40;0.75;;;24.00;89.00;;;;;;4129282;28;20478;-72
2022/07/15 07:00:27;;;;;;;2.70;0.95;;;24.00;89.70;;;;;;4134058;28;20031;-72
2022/07/15 07:02:27;;;;;;;2.88;0.88;;;24.10;90.60;;;;;;4130051;28;20026;-72
2022/07/15 07:04:28;;;;;;;3.25;1.00;;;24.10;90.50;;;;;;4130551;28;20113;-73
2022/07/15 07:06:28;;;;;;;5.18;1.35;;;24.10;90.30;;;;;;4131414;28;20535;-72
2022/07/15 07:08:29;;;;;;;3.42;0.80;;;24.10;90.00;;;;;;4129986;28;20031;-72
2022/07/15 07:10:30;;;;;;;3.30;1.17;;;24.00;91.10;;;;;;4129684;28;21108;-71
2022/07/15 07:12:30;;;;;;;2.35;1.10;;;23.90;90.70;;;;;;4130116;28;20038;-72
2022/07/15 07:14:31;;;;;;;1.85;0.90;;;23.80;90.30;;;;;;4129484;28;20482;-72
2022/07/15 07:16:32;;;;;;;2.05;0.90;;;23.70;91.00;;;;;;4127722;28;20034;-72
2022/07/15 07:18:33;;;;;;;2.28;0.93;;;23.70;91.00;;;;;;4129427;28;20478;-72
2022/07/15 07:20:35;;;;;;;7.47;1.73;;;23.80;90.50;;;;;;4130336;28;20441;-71
2022/07/15 07:22:36;;;;;;;2.80;1.10;;;23.80;91.30;;;;;;4129884;28;20036;-72
2022/07/15 07:24:36;;;;;;;3.45;1.65;;;23.80;89.20;;;;;;4130870;28;20053;-72
2022/07/15 07:26:37;;;;;;;3.60;1.00;;;23.80;88.10;;;;;;4128614;28;20030;-72
2022/07/15 07:28:40;;;;;;;3.33;1.05;;;23.90;90.00;;;;;;4129061;28;20057;-73
2022/07/15 07:30:40;;;;;;;4.40;1.00;;;23.90;89.60;;;;;;4127961;28;20042;-73
2022/07/15 07:32:41;;;;;;;2.25;1.00;;;23.90;88.10;;;;;;4129878;28;20042;-72
2022/07/15 07:34:42;;;;;;;2.03;0.90;;;24.00;85.30;;;;;;4130383;28;20073;-71
2022/07/15 07:36:43;;;;;;;2.00;0.90;;;24.10;85.40;;;;;;4128445;28;20480;-71
2022/07/15 07:38:43;;;;;;;2.67;1.08;;;24.10;85.00;;;;;;4127289;28;20121;-73
2022/07/15 07:40:47;;;;;;;4.40;1.00;;;24.10;86.60;;;;;;4129977;28;20034;-72
2022/07/15 07:42:48;;;;;;;4.88;1.35;;;24.10;85.50;;;;;;4128886;28;20080;-72
2022/07/15 07:44:48;;;;;;;1.48;0.77;;;24.10;83.10;;;;;;4129874;28;20046;-72
2022/07/15 07:46:49;;;;;;;2.55;0.90;;;24.10;82.70;;;;;;4128284;28;20034;-72
2022/07/15 07:48:50;;;;;;;2.42;0.90;;;24.10;83.30;;;;;;4118366;28;20185;-73
2022/07/15 07:50:51;;;;;;;3.25;1.00;;;24.10;85.20;;;;;;4129531;28;20050;-72
2022/07/15 07:52:53;;;;;;;2.43;0.77;;;24.10;83.10;;;;;;4128793;28;20117;-72
2022/07/15 07:54:54;;;;;;;2.70;0.82;;;24.10;83.00;;;;;;4129298;28;20329;-72
2022/07/15 07:56:55;;;;;;;3.67;1.20;;;24.10;83.70;;;;;;4126890;28;20076;-72
2022/07/15 07:58:55;;;;;;;3.38;1.10;;;24.10;82.60;;;;;;4126794;28;20034;-72
2022/07/15 08:00:56;;;;;;;2.90;0.95;;;24.10;84.80;;;;;;4129445;28;20029;-72
2022/07/15 08:02:58;;;;;;;4.43;1.27;;;24.00;82.10;;;;;;4131100;28;20034;-72
2022/07/15 08:04:59;;;;;;;;;;;24.00;84.00;;;;;;4129879;28;20034;-72
2022/07/15 08:06:59;;;;;;;6.88;0.90;;;24.00;80.80;;;;;;4126175;28;20365;-72
2022/07/15 08:09:00;;;;;;;1.60;0.80;;;24.00;85.10;;;;;;4127466;28;20041;-71
2022/07/15 08:11:01;;;;;;;6.07;0.88;;;24.10;85.80;;;;;;4128958;28;20038;-72
2022/07/15 08:13:02;;;;;;;3.97;1.00;;;24.10;82.50;;;;;;4130785;28;20037;-72
2022/07/15 08:15:05;;;;;;;2.78;1.10;;;24.20;82.80;;;;;;4129310;28;20086;-73
2022/07/15 08:17:05;;;;;;;2.30;0.55;;;24.30;87.70;;;;;;4126121;28;20057;-73
2022/07/15 08:19:06;;;;;;;1.35;0.80;;;24.30;85.00;;;;;;4128534;28;20037;-73
2022/07/15 08:21:06;;;;;;;2.42;0.90;;;24.40;83.80;;;;;;4127836;28;20042;-72
2022/07/15 08:23:08;;;;;;;2.67;0.80;;;24.40;82.80;;;;;;4130061;28;20031;-71
2022/07/15 08:25:09;;;;;;;3.78;1.02;;;24.40;84.30;;;;;;4128848;28;20031;-73
2022/07/15 08:27:09;;;;;;;2.47;0.80;;;24.30;80.40;;;;;;4127399;28;20076;-72
2022/07/15 08:29:11;;;;;;;1.67;0.55;;;24.20;81.10;;;;;;4127248;28;20068;-72
2022/07/15 08:31:12;;;;;;;4.07;1.58;;;24.20;78.00;;;;;;4126993;28;20065;-72
2022/07/15 08:33:13;;;;;;;2.00;0.63;;;24.10;80.10;;;;;;4128431;28;20031;-72
2022/07/15 08:35:14;;;;;;;3.63;1.13;;;24.00;79.80;;;;;;4129055;28;20501;-73
2022/07/15 08:37:16;;;;;;;1.00;0.60;;;23.90;82.10;;;;;;4126107;28;20035;-73
2022/07/15 08:39:16;;;;;;;2.42;0.93;;;24.00;82.00;;;;;;4128438;28;20034;-72
2022/07/15 08:41:18;;;;;;;3.75;1.10;;;23.90;83.50;;;;;;4128886;28;20093;-71
2022/07/15 08:43:18;;;;;;;2.40;0.75;;;23.80;82.40;;;;;;4128790;28;20061;-72
2022/07/15 08:45:19;;;;;;;1.85;0.80;;;23.80;83.30;;;;;;4128217;28;20047;-72
2022/07/15 08:47:23;;;;;;;3.03;0.90;;;23.70;82.10;;;;;;4111758;28;20415;-71
2022/07/15 08:49:28;;;;;;;2.35;0.70;;;23.50;84.50;;;;;;4134699;28;20034;-71
2022/07/15 08:51:32;;;;;;;2.55;0.65;;;23.40;82.60;;;;;;4128732;28;20030;-71
2022/07/15 08:53:33;;;;;;;2.15;0.80;;;23.40;82.70;;;;;;4128844;28;20034;-72
2022/07/15 08:55:34;;;;;;;1.70;1.05;;;23.40;83.30;;;;;;4128725;28;20039;-71
2022/07/15 08:57:35;;;;;;;1.08;0.50;;;23.40;84.20;;;;;;4127413;28;22319;-72
2022/07/15 08:59:36;;;;;;;2.97;0.95;;;23.30;80.90;;;;;;4128296;28;20176;-72
2022/07/15 09:01:42;;;;;;;4.20;0.85;;;23.40;81.90;;;;;;4128568;28;20126;-72
2022/07/15 09:03:43;;;;;;;3.50;1.00;;;23.40;80.30;;;;;;4128608;28;20081;-71
2022/07/15 09:05:43;;;;;;;3.70;1.00;;;23.40;83.40;;;;;;4128763;28;20026;-72
2022/07/15 09:07:53;;;;;;;1.98;0.70;;;23.20;83.90;;;;;;4125381;28;20045;-72
2022/07/15 09:09:53;;;;;;;2.58;0.90;;;23.20;81.80;;;;;;4127372;28;20482;-71
2022/07/15 09:12:14;;;;;;;5.03;1.33;;;23.20;78.90;;;;;;4128127;28;20039;-71
2022/07/15 09:14:14;;;;;;;3.00;0.82;;;23.10;82.90;;;;;;4112936;28;20031;-71
2022/07/15 09:16:21;;;;;;;2.28;0.77;;;22.90;80.00;;;;;;4125795;28;20030;-72
2022/07/15 09:18:25;;;;;;;3.45;0.95;;;23.00;85.80;;;;;;4126655;28;20428;-71
2022/07/15 09:20:27;;;;;;;2.58;0.90;;;23.10;85.00;;;;;;4128024;28;20054;-71
2022/07/15 09:22:31;;;;;;;1.25;0.52;;;23.10;79.70;;;;;;4128111;28;20570;-72
2022/07/15 09:24:32;;;;;;;1.95;0.60;;;23.20;81.80;;;;;;4127963;28;20121;-72
2022/07/15 09:26:36;;;;;;;2.10;0.75;;;23.30;81.50;;;;;;4126574;28;20097;-71
2022/07/15 09:28:39;;;;;;;2.25;1.05;;;23.20;83.10;;;;;;4124793;28;20451;-71
2022/07/15 09:37:59;;;;;;;2.88;0.73;;;23.20;83.50;;;;;;4120240;28;20375;-72
2022/07/15 09:40:00;;;;;;;4.60;0.77;;;23.30;82.10;;;;;;4126720;28;20030;-71
2022/07/15 09:42:06;;;;;;;1.90;0.95;;;23.20;82.00;;;;;;4123873;28;20042;-71
2022/07/15 09:44:15;;;;;;;2.83;0.82;;;23.20;81.20;;;;;;4127156;28;20041;-72
2022/07/15 09:46:17;;;;;;;3.42;0.82;;;23.20;81.40;;;;;;4125553;28;20188;-72
2022/07/15 09:48:18;;;;;;;2.90;0.90;;;23.30;82.40;;;;;;4125100;28;20173;-72
2022/07/15 09:53:16;;;;;;;3.13;0.85;;;23.20;82.50;;;;;;4126047;28;20034;-72
2022/07/15 09:55:17;;;;;;;3.67;1.00;;;22.90;81.90;;;;;;4126608;28;20033;-71
2022/07/15 09:57:20;;;;;;;4.70;1.02;;;22.80;83.30;;;;;;4126281;28;20258;-71
2022/07/15 09:59:21;;;;;;;2.92;0.68;;;22.80;83.30;;;;;;4127547;28;20026;-71
2022/07/15 10:01:21;;;;;;;1.98;0.82;;;22.90;82.10;;;;;;4131361;28;20058;-71
2022/07/15 10:03:23;;;;;;;4.90;0.98;;;22.90;82.90;;;;;;4131269;28;20023;-71
2022/07/15 10:05:27;;;;;;;1.83;0.75;;;23.00;82.50;;;;;;4130151;28;20038;-72
2022/07/15 10:07:28;;;;;;;3.20;0.80;;;22.90;83.10;;;;;;4133745;28;20030;-71
2022/07/15 10:09:33;;;;;;;1.67;0.60;;;22.90;83.30;;;;;;4127021;28;20030;-71
2022/07/15 10:11:46;;;;;;;2.08;0.90;;;22.90;80.80;;;;;;4129517;28;20047;-71
2022/07/15 10:14:05;;;;;;;1.33;0.70;;;22.90;81.00;;;;;;4128184;28;20042;-71
2022/07/15 10:16:14;;;;;;;1.52;0.65;;;23.10;80.10;;;;;;4127363;28;20041;-71
2022/07/15 10:18:33;;;;;;;3.10;0.95;;;23.20;83.00;;;;;;4127007;28;20038;-71
2022/07/15 10:20:40;;;;;;;4.85;1.45;;;23.20;80.60;;;;;;4125725;28;20042;-71
2022/07/15 10:22:44;;;;;;;2.85;0.57;;;23.10;83.50;;;;;;4127444;28;20046;-71
2022/07/15 10:25:02;;;;;;;3.25;0.85;;;23.10;84.00;;;;;;4128234;28;20036;-72
2022/07/15 10:27:26;;;;;;;2.78;0.70;;;23.00;83.00;;;;;;4127216;28;20070;-72
2022/07/15 10:29:30;;;;;;;1.92;0.65;;;23.00;82.90;;;;;;4125878;28;20046;-71
2022/07/15 10:31:32;;;;;;;2.83;0.82;;;23.00;82.90;;;;;;4129371;28;20125;-71
2022/07/15 10:33:33;;;;;;;;;;;23.00;83.30;;;;;;4128092;28;20494;-72
2022/07/15 10:35:51;;;;;;;1.50;0.85;;;23.00;82.70;;;;;;4125753;28;19909;-71
2022/07/15 10:38:29;;;;;;;1.95;0.50;;;23.10;81.20;;;;;;4125070;28;20043;-71
2022/07/15 10:40:55;;;;;;;1.40;0.73;;;23.10;83.10;;;;;;4123440;28;20113;-71
2022/07/15 10:43:01;;;;;;;2.38;0.57;;;23.20;80.80;;;;;;4124057;28;20552;-72
2022/07/15 10:45:05;;;;;;;1.58;0.50;;;23.30;80.80;;;;;;4127491;28;20037;-72
2022/07/15 10:47:12;;;;;;;2.55;0.77;;;23.40;75.60;;;;;;4124559;28;20117;-72